sensor_id;sensor_type;location;lat;lon;timestamp;P1;durP1;ratioP1;P2;durP2;ratioP2
37517;SDS011;23366;52.498;13.446;2022-12-18T00:02:42;23.95;;;7.82;;
37517;SDS011;23366;52.498;13.446;2022-12-18T00:05:11;27.95;;;10.60;;
37517;SDS011;23366;52.498;13.446;2022-12-18T00:07:36;33.35;;;11.30;;
37517;SDS011;23366;52.498;13.446;2022-12-18T00:10:03;27.33;;;9.93;;
37517;SDS011;23366;52.498;13.446;2022-12-18T00:12:29;29.15;;;9.73;;
37517;SDS011;23366;52.498;13.446;2022-12-18T00:15:16;42.30;;;12.05;;
37517;SDS011;23366;52.498;13.446;2022-12-18T00:17:42;27.85;;;9.90;;
37517;SDS011;23366;52.498;13.446;2022-12-18T00:20:07;38.10;;;13.40;;
37517;SDS011;23366;52.498;13.446;2022-12-18T00:22:34;31.23;;;10.57;;
37517;SDS011;23366;52.498;13.446;2022-12-18T00:24:59;25.27;;;9.80;;
37517;SDS011;23366;52.498;13.446;2022-12-18T00:27:25;35.63;;;14.32;;
37517;SDS011;23366;52.498;13.446;2022-12-18T00:29:50;36.58;;;12.07;;
37517;SDS011;23366;52.498;13.446;2022-12-18T00:32:16;31.75;;;10.73;;
37517;SDS011;23366;52.498;13.446;2022-12-18T00:34:45;23.95;;;9.80;;
37517;SDS011;23366;52.498;13.446;2022-12-18T00:37:10;30.38;;;10.85;;
37517;SDS011;23366;52.498;13.446;2022-12-18T00:39:36;40.20;;;13.32;;
37517;SDS011;23366;52.498;13.446;2022-12-18T00:42:01;30.40;;;11.48;;
37517;SDS011;23366;52.498;13.446;2022-12-18T00:44:45;35.08;;;10.13;;
37517;SDS011;23366;52.498;13.446;2022-12-18T00:47:11;33.88;;;10.48;;
37517;SDS011;23366;52.498;13.446;2022-12-18T00:49:37;32.03;;;9.80;;
37517;SDS011;23366;52.498;13.446;2022-12-18T00:52:06;37.72;;;11.20;;
37517;SDS011;23366;52.498;13.446;2022-12-18T00:54:31;27.10;;;8.88;;
37517;SDS011;23366;52.498;13.446;2022-12-18T00:56:58;31.10;;;9.38;;
37517;SDS011;23366;52.498;13.446;2022-12-18T00:59:29;25.00;;;9.90;;
37517;SDS011;23366;52.498;13.446;2022-12-18T01:01:55;37.92;;;9.00;;
37517;SDS011;23366;52.498;13.446;2022-12-18T01:04:20;31.35;;;8.45;;
37517;SDS011;23366;52.498;13.446;2022-12-18T01:06:46;33.25;;;10.60;;
37517;SDS011;23366;52.498;13.446;2022-12-18T01:09:14;30.60;;;8.30;;
37517;SDS011;23366;52.498;13.446;2022-12-18T01:11:40;32.03;;;11.00;;
37517;SDS011;23366;52.498;13.446;2022-12-18T01:14:08;37.92;;;10.43;;
37517;SDS011;23366;52.498;13.446;2022-12-18T01:16:34;33.83;;;9.68;;
37517;SDS011;23366;52.498;13.446;2022-12-18T01:19:00;31.50;;;9.70;;
37517;SDS011;23366;52.498;13.446;2022-12-18T01:21:26;21.90;;;7.65;;
37517;SDS011;23366;52.498;13.446;2022-12-18T01:23:55;27.95;;;8.90;;
37517;SDS011;23366;52.498;13.446;2022-12-18T01:26:21;26.65;;;8.82;;
37517;SDS011;23366;52.498;13.446;2022-12-18T01:28:53;26.98;;;10.02;;
37517;SDS011;23366;52.498;13.446;2022-12-18T01:31:21;33.08;;;12.88;;
37517;SDS011;23366;52.498;13.446;2022-12-18T01:33:51;41.47;;;10.77;;
37517;SDS011;23366;52.498;13.446;2022-12-18T01:36:18;37.25;;;10.07;;
37517;SDS011;23366;52.498;13.446;2022-12-18T01:38:47;32.97;;;10.27;;
37517;SDS011;23366;52.498;13.446;2022-12-18T01:41:13;30.38;;;9.90;;
37517;SDS011;23366;52.498;13.446;2022-12-18T01:46:29;38.03;;;12.82;;
37517;SDS011;23366;52.498;13.446;2022-12-18T01:48:57;48.67;;;13.00;;
37517;SDS011;23366;52.498;13.446;2022-12-18T01:51:24;41.65;;;14.10;;
37517;SDS011;23366;52.498;13.446;2022-12-18T01:53:54;43.63;;;14.43;;
37517;SDS011;23366;52.498;13.446;2022-12-18T01:56:23;42.80;;;13.35;;
37517;SDS011;23366;52.498;13.446;2022-12-18T01:58:56;47.78;;;13.48;;
37517;SDS011;23366;52.498;13.446;2022-12-18T02:01:31;39.55;;;12.15;;
37517;SDS011;23366;52.498;13.446;2022-12-18T02:04:19;50.20;;;15.98;;
37517;SDS011;23366;52.498;13.446;2022-12-18T02:06:45;56.10;;;15.85;;
37517;SDS011;23366;52.498;13.446;2022-12-18T02:09:19;47.17;;;15.30;;
37517;SDS011;23366;52.498;13.446;2022-12-18T02:15:03;42.05;;;14.50;;
37517;SDS011;23366;52.498;13.446;2022-12-18T02:17:37;55.20;;;18.13;;
37517;SDS011;23366;52.498;13.446;2022-12-18T02:22:53;51.90;;;15.27;;
37517;SDS011;23366;52.498;13.446;2022-12-18T02:28:16;54.63;;;16.88;;
37517;SDS011;23366;52.498;13.446;2022-12-18T02:30:46;46.67;;;15.27;;
37517;SDS011;23366;52.498;13.446;2022-12-18T02:33:16;53.42;;;15.75;;
37517;SDS011;23366;52.498;13.446;2022-12-18T02:35:52;53.15;;;18.52;;
37517;SDS011;23366;52.498;13.446;2022-12-18T02:38:19;62.60;;;15.00;;
37517;SDS011;23366;52.498;13.446;2022-12-18T02:40:45;45.58;;;17.00;;
37517;SDS011;23366;52.498;13.446;2022-12-18T02:43:13;57.13;;;15.32;;
37517;SDS011;23366;52.498;13.446;2022-12-18T02:45:48;53.90;;;15.10;;
37517;SDS011;23366;52.498;13.446;2022-12-18T02:48:22;54.03;;;16.60;;
37517;SDS011;23366;52.498;13.446;2022-12-18T02:53:41;50.70;;;16.33;;
37517;SDS011;23366;52.498;13.446;2022-12-18T02:56:17;52.08;;;15.40;;
37517;SDS011;23366;52.498;13.446;2022-12-18T03:01:33;35.63;;;11.93;;
37517;SDS011;23366;52.498;13.446;2022-12-18T03:07:05;42.88;;;15.10;;
37517;SDS011;23366;52.498;13.446;2022-12-18T03:09:39;59.50;;;17.10;;
37517;SDS011;23366;52.498;13.446;2022-12-18T03:12:20;54.60;;;16.47;;
37517;SDS011;23366;52.498;13.446;2022-12-18T03:17:25;45.70;;;17.42;;
37517;SDS011;23366;52.498;13.446;2022-12-18T03:19:52;36.42;;;12.18;;
37517;SDS011;23366;52.498;13.446;2022-12-18T03:22:21;45.78;;;12.43;;
37517;SDS011;23366;52.498;13.446;2022-12-18T03:24:50;35.45;;;11.40;;
37517;SDS011;23366;52.498;13.446;2022-12-18T03:27:18;35.83;;;13.43;;
37517;SDS011;23366;52.498;13.446;2022-12-18T03:29:52;43.33;;;13.93;;
37517;SDS011;23366;52.498;13.446;2022-12-18T03:35:29;35.47;;;12.75;;
37517;SDS011;23366;52.498;13.446;2022-12-18T03:37:59;40.20;;;10.95;;
37517;SDS011;23366;52.498;13.446;2022-12-18T03:40:35;36.10;;;12.27;;
37517;SDS011;23366;52.498;13.446;2022-12-18T03:43:12;27.65;;;9.13;;
37517;SDS011;23366;52.498;13.446;2022-12-18T03:45:48;42.35;;;12.90;;
37517;SDS011;23366;52.498;13.446;2022-12-18T03:48:20;38.53;;;12.23;;
37517;SDS011;23366;52.498;13.446;2022-12-18T03:51:13;28.55;;;11.30;;
37517;SDS011;23366;52.498;13.446;2022-12-18T03:56:14;32.60;;;9.90;;
37517;SDS011;23366;52.498;13.446;2022-12-18T03:58:42;28.98;;;9.27;;
37517;SDS011;23366;52.498;13.446;2022-12-18T04:01:11;38.05;;;12.80;;
37517;SDS011;23366;52.498;13.446;2022-12-18T04:03:39;25.45;;;11.73;;
37517;SDS011;23366;52.498;13.446;2022-12-18T04:06:07;37.13;;;11.35;;
37517;SDS011;23366;52.498;13.446;2022-12-18T04:08:33;34.05;;;11.75;;
37517;SDS011;23366;52.498;13.446;2022-12-18T04:11:00;37.17;;;11.10;;
37517;SDS011;23366;52.498;13.446;2022-12-18T04:13:37;40.05;;;11.85;;
37517;SDS011;23366;52.498;13.446;2022-12-18T04:16:03;30.15;;;11.98;;
37517;SDS011;23366;52.498;13.446;2022-12-18T04:18:29;36.65;;;12.43;;
37517;SDS011;23366;52.498;13.446;2022-12-18T04:20:54;41.05;;;11.20;;
37517;SDS011;23366;52.498;13.446;2022-12-18T04:23:21;28.23;;;10.38;;
37517;SDS011;23366;52.498;13.446;2022-12-18T04:25:47;33.40;;;10.82;;
37517;SDS011;23366;52.498;13.446;2022-12-18T04:28:13;34.65;;;11.15;;
37517;SDS011;23366;52.498;13.446;2022-12-18T04:30:39;32.72;;;10.48;;
37517;SDS011;23366;52.498;13.446;2022-12-18T04:33:08;36.25;;;11.50;;
37517;SDS011;23366;52.498;13.446;2022-12-18T04:35:38;24.25;;;9.55;;
37517;SDS011;23366;52.498;13.446;2022-12-18T04:38:05;26.58;;;9.05;;
37517;SDS011;23366;52.498;13.446;2022-12-18T04:40:36;29.50;;;8.95;;
37517;SDS011;23366;52.498;13.446;2022-12-18T04:43:03;26.65;;;11.32;;
37517;SDS011;23366;52.498;13.446;2022-12-18T04:45:31;32.00;;;11.68;;
37517;SDS011;23366;52.498;13.446;2022-12-18T04:47:59;34.40;;;9.25;;
37517;SDS011;23366;52.498;13.446;2022-12-18T04:50:25;32.88;;;10.93;;
37517;SDS011;23366;52.498;13.446;2022-12-18T04:52:51;34.20;;;11.07;;
37517;SDS011;23366;52.498;13.446;2022-12-18T04:55:16;29.02;;;10.50;;
37517;SDS011;23366;52.498;13.446;2022-12-18T04:57:42;30.98;;;10.43;;
37517;SDS011;23366;52.498;13.446;2022-12-18T05:00:07;30.92;;;11.27;;
37517;SDS011;23366;52.498;13.446;2022-12-18T05:02:33;28.73;;;10.57;;
37517;SDS011;23366;52.498;13.446;2022-12-18T05:04:59;31.83;;;9.57;;
37517;SDS011;23366;52.498;13.446;2022-12-18T05:07:25;36.83;;;9.93;;
37517;SDS011;23366;52.498;13.446;2022-12-18T05:09:51;27.80;;;10.52;;
37517;SDS011;23366;52.498;13.446;2022-12-18T05:12:16;35.85;;;11.88;;
37517;SDS011;23366;52.498;13.446;2022-12-18T05:14:42;24.23;;;8.55;;
37517;SDS011;23366;52.498;13.446;2022-12-18T05:17:07;33.35;;;11.23;;
37517;SDS011;23366;52.498;13.446;2022-12-18T05:19:33;32.83;;;10.40;;
37517;SDS011;23366;52.498;13.446;2022-12-18T05:21:58;30.77;;;9.77;;
37517;SDS011;23366;52.498;13.446;2022-12-18T05:24:24;35.47;;;10.13;;
37517;SDS011;23366;52.498;13.446;2022-12-18T05:26:49;31.15;;;9.88;;
37517;SDS011;23366;52.498;13.446;2022-12-18T05:29:15;36.13;;;12.07;;
37517;SDS011;23366;52.498;13.446;2022-12-18T05:31:40;39.33;;;11.55;;
37517;SDS011;23366;52.498;13.446;2022-12-18T05:34:06;33.83;;;10.50;;
37517;SDS011;23366;52.498;13.446;2022-12-18T05:36:32;50.08;;;11.65;;
37517;SDS011;23366;52.498;13.446;2022-12-18T05:38:58;32.90;;;10.30;;
37517;SDS011;23366;52.498;13.446;2022-12-18T05:41:25;41.40;;;13.13;;
37517;SDS011;23366;52.498;13.446;2022-12-18T05:43:50;35.47;;;9.60;;
37517;SDS011;23366;52.498;13.446;2022-12-18T05:46:16;35.60;;;11.80;;
37517;SDS011;23366;52.498;13.446;2022-12-18T05:48:43;34.08;;;10.00;;
37517;SDS011;23366;52.498;13.446;2022-12-18T05:51:10;47.70;;;11.98;;
37517;SDS011;23366;52.498;13.446;2022-12-18T05:53:40;35.30;;;13.75;;
37517;SDS011;23366;52.498;13.446;2022-12-18T05:56:11;45.80;;;12.52;;
37517;SDS011;23366;52.498;13.446;2022-12-18T05:58:42;37.53;;;12.45;;
37517;SDS011;23366;52.498;13.446;2022-12-18T06:10:06;48.78;;;12.90;;
37517;SDS011;23366;52.498;13.446;2022-12-18T06:12:32;35.22;;;13.18;;
37517;SDS011;23366;52.498;13.446;2022-12-18T06:15:00;52.08;;;15.45;;
37517;SDS011;23366;52.498;13.446;2022-12-18T06:17:30;38.58;;;13.95;;
37517;SDS011;23366;52.498;13.446;2022-12-18T06:20:01;43.53;;;13.60;;
37517;SDS011;23366;52.498;13.446;2022-12-18T06:22:34;44.55;;;12.00;;
37517;SDS011;23366;52.498;13.446;2022-12-18T06:25:00;32.88;;;12.80;;
37517;SDS011;23366;52.498;13.446;2022-12-18T06:27:26;53.30;;;14.98;;
37517;SDS011;23366;52.498;13.446;2022-12-18T06:29:52;37.05;;;13.30;;
37517;SDS011;23366;52.498;13.446;2022-12-18T06:32:17;37.72;;;15.88;;
37517;SDS011;23366;52.498;13.446;2022-12-18T06:34:43;35.45;;;13.52;;
37517;SDS011;23366;52.498;13.446;2022-12-18T06:37:08;43.53;;;15.05;;
37517;SDS011;23366;52.498;13.446;2022-12-18T06:39:34;40.33;;;12.20;;
37517;SDS011;23366;52.498;13.446;2022-12-18T06:42:00;41.17;;;15.38;;
37517;SDS011;23366;52.498;13.446;2022-12-18T06:44:26;36.03;;;10.73;;
37517;SDS011;23366;52.498;13.446;2022-12-18T06:46:51;49.90;;;14.82;;
37517;SDS011;23366;52.498;13.446;2022-12-18T06:49:17;37.17;;;12.80;;
37517;SDS011;23366;52.498;13.446;2022-12-18T06:51:42;36.67;;;11.98;;
37517;SDS011;23366;52.498;13.446;2022-12-18T06:54:08;34.78;;;12.43;;
37517;SDS011;23366;52.498;13.446;2022-12-18T06:56:33;40.67;;;12.75;;
37517;SDS011;23366;52.498;13.446;2022-12-18T06:58:59;28.95;;;11.10;;
37517;SDS011;23366;52.498;13.446;2022-12-18T07:01:24;35.15;;;14.02;;
37517;SDS011;23366;52.498;13.446;2022-12-18T07:03:53;36.40;;;13.40;;
37517;SDS011;23366;52.498;13.446;2022-12-18T07:06:21;36.10;;;13.73;;
37517;SDS011;23366;52.498;13.446;2022-12-18T07:08:49;45.17;;;12.52;;
37517;SDS011;23366;52.498;13.446;2022-12-18T07:11:15;41.15;;;13.88;;
37517;SDS011;23366;52.498;13.446;2022-12-18T07:13:42;34.95;;;11.23;;
37517;SDS011;23366;52.498;13.446;2022-12-18T07:16:11;43.08;;;13.55;;
37517;SDS011;23366;52.498;13.446;2022-12-18T07:18:44;43.92;;;12.95;;
37517;SDS011;23366;52.498;13.446;2022-12-18T07:21:11;37.35;;;12.52;;
37517;SDS011;23366;52.498;13.446;2022-12-18T07:23:41;38.85;;;14.32;;
37517;SDS011;23366;52.498;13.446;2022-12-18T07:26:09;53.72;;;14.85;;
37517;SDS011;23366;52.498;13.446;2022-12-18T07:28:37;45.95;;;11.68;;
37517;SDS011;23366;52.498;13.446;2022-12-18T07:31:04;49.00;;;15.07;;
37517;SDS011;23366;52.498;13.446;2022-12-18T07:33:46;37.08;;;11.75;;
37517;SDS011;23366;52.498;13.446;2022-12-18T07:36:13;36.60;;;12.40;;
37517;SDS011;23366;52.498;13.446;2022-12-18T07:38:41;35.13;;;14.13;;
37517;SDS011;23366;52.498;13.446;2022-12-18T07:41:11;49.58;;;16.30;;
37517;SDS011;23366;52.498;13.446;2022-12-18T07:43:38;47.42;;;12.05;;
37517;SDS011;23366;52.498;13.446;2022-12-18T07:46:04;45.30;;;14.77;;
37517;SDS011;23366;52.498;13.446;2022-12-18T07:48:31;53.85;;;17.15;;
37517;SDS011;23366;52.498;13.446;2022-12-18T07:50:59;49.38;;;14.85;;
37517;SDS011;23366;52.498;13.446;2022-12-18T07:53:26;43.65;;;13.15;;
37517;SDS011;23366;52.498;13.446;2022-12-18T07:55:55;46.78;;;11.65;;
37517;SDS011;23366;52.498;13.446;2022-12-18T07:58:22;51.15;;;13.65;;
37517;SDS011;23366;52.498;13.446;2022-12-18T08:00:47;42.15;;;13.65;;
37517;SDS011;23366;52.498;13.446;2022-12-18T08:03:13;42.13;;;12.63;;
37517;SDS011;23366;52.498;13.446;2022-12-18T08:05:41;42.00;;;16.00;;
37517;SDS011;23366;52.498;13.446;2022-12-18T08:08:06;36.67;;;13.52;;
37517;SDS011;23366;52.498;13.446;2022-12-18T08:10:32;39.33;;;12.13;;
37517;SDS011;23366;52.498;13.446;2022-12-18T08:12:57;32.95;;;11.88;;
37517;SDS011;23366;52.498;13.446;2022-12-18T08:15:23;38.55;;;12.15;;
37517;SDS011;23366;52.498;13.446;2022-12-18T08:17:48;25.45;;;11.40;;
37517;SDS011;23366;52.498;13.446;2022-12-18T08:20:14;31.27;;;11.70;;
37517;SDS011;23366;52.498;13.446;2022-12-18T08:22:40;36.67;;;11.85;;
37517;SDS011;23366;52.498;13.446;2022-12-18T08:25:07;30.08;;;9.60;;
37517;SDS011;23366;52.498;13.446;2022-12-18T08:27:33;27.65;;;10.73;;
37517;SDS011;23366;52.498;13.446;2022-12-18T08:29:58;33.17;;;12.75;;
37517;SDS011;23366;52.498;13.446;2022-12-18T08:32:24;34.45;;;9.98;;
37517;SDS011;23366;52.498;13.446;2022-12-18T08:34:54;33.90;;;12.90;;
37517;SDS011;23366;52.498;13.446;2022-12-18T08:37:30;29.67;;;10.90;;
37517;SDS011;23366;52.498;13.446;2022-12-18T08:39:58;35.15;;;11.85;;
37517;SDS011;23366;52.498;13.446;2022-12-18T08:42:23;38.25;;;11.75;;
37517;SDS011;23366;52.498;13.446;2022-12-18T08:45:10;28.33;;;10.20;;
37517;SDS011;23366;52.498;13.446;2022-12-18T08:47:36;31.13;;;11.48;;
37517;SDS011;23366;52.498;13.446;2022-12-18T08:50:01;28.90;;;10.73;;
37517;SDS011;23366;52.498;13.446;2022-12-18T08:52:27;33.13;;;10.63;;
37517;SDS011;23366;52.498;13.446;2022-12-18T08:54:53;30.50;;;11.05;;
37517;SDS011;23366;52.498;13.446;2022-12-18T08:57:18;35.50;;;10.38;;
37517;SDS011;23366;52.498;13.446;2022-12-18T08:59:44;28.95;;;10.18;;
37517;SDS011;23366;52.498;13.446;2022-12-18T09:02:10;35.50;;;12.23;;
37517;SDS011;23366;52.498;13.446;2022-12-18T09:04:36;29.10;;;10.27;;
37517;SDS011;23366;52.498;13.446;2022-12-18T09:07:01;40.33;;;11.48;;
37517;SDS011;23366;52.498;13.446;2022-12-18T09:09:27;35.63;;;12.00;;
37517;SDS011;23366;52.498;13.446;2022-12-18T09:11:52;44.78;;;14.82;;
37517;SDS011;23366;52.498;13.446;2022-12-18T09:14:18;43.92;;;16.48;;
37517;SDS011;23366;52.498;13.446;2022-12-18T09:16:43;31.75;;;13.40;;
37517;SDS011;23366;52.498;13.446;2022-12-18T09:19:09;33.85;;;11.40;;
37517;SDS011;23366;52.498;13.446;2022-12-18T09:21:38;28.25;;;11.10;;
37517;SDS011;23366;52.498;13.446;2022-12-18T09:24:04;27.63;;;11.73;;
37517;SDS011;23366;52.498;13.446;2022-12-18T09:26:30;26.67;;;10.32;;
37517;SDS011;23366;52.498;13.446;2022-12-18T09:28:56;29.13;;;11.15;;
37517;SDS011;23366;52.498;13.446;2022-12-18T09:31:22;37.55;;;12.65;;
37517;SDS011;23366;52.498;13.446;2022-12-18T09:33:49;32.30;;;10.75;;
37517;SDS011;23366;52.498;13.446;2022-12-18T09:36:16;27.02;;;10.45;;
37517;SDS011;23366;52.498;13.446;2022-12-18T09:38:42;30.05;;;10.55;;
37517;SDS011;23366;52.498;13.446;2022-12-18T09:41:17;44.83;;;11.30;;
37517;SDS011;23366;52.498;13.446;2022-12-18T09:43:56;44.30;;;10.45;;
37517;SDS011;23366;52.498;13.446;2022-12-18T09:46:26;32.50;;;10.38;;
37517;SDS011;23366;52.498;13.446;2022-12-18T09:49:02;32.00;;;10.20;;
37517;SDS011;23366;52.498;13.446;2022-12-18T09:51:33;24.77;;;11.40;;
37517;SDS011;23366;52.498;13.446;2022-12-18T09:54:11;39.78;;;13.75;;
37517;SDS011;23366;52.498;13.446;2022-12-18T09:56:41;31.45;;;12.75;;
37517;SDS011;23366;52.498;13.446;2022-12-18T09:59:15;44.85;;;15.25;;
37517;SDS011;23366;52.498;13.446;2022-12-18T10:01:48;30.40;;;11.45;;
37517;SDS011;23366;52.498;13.446;2022-12-18T10:04:13;34.97;;;11.70;;
37517;SDS011;23366;52.498;13.446;2022-12-18T10:06:43;31.23;;;11.43;;
37517;SDS011;23366;52.498;13.446;2022-12-18T10:11:53;41.25;;;14.43;;
37517;SDS011;23366;52.498;13.446;2022-12-18T10:14:34;36.55;;;13.30;;
37517;SDS011;23366;52.498;13.446;2022-12-18T10:17:26;33.10;;;11.25;;
37517;SDS011;23366;52.498;13.446;2022-12-18T10:25:27;37.00;;;11.63;;
37517;SDS011;23366;52.498;13.446;2022-12-18T10:28:00;36.05;;;14.27;;
37517;SDS011;23366;52.498;13.446;2022-12-18T10:30:34;31.88;;;10.95;;
37517;SDS011;23366;52.498;13.446;2022-12-18T10:33:00;32.85;;;10.63;;
37517;SDS011;23366;52.498;13.446;2022-12-18T10:35:29;34.08;;;11.85;;
37517;SDS011;23366;52.498;13.446;2022-12-18T10:40:49;35.03;;;11.65;;
37517;SDS011;23366;52.498;13.446;2022-12-18T10:43:22;35.40;;;12.15;;
37517;SDS011;23366;52.498;13.446;2022-12-18T10:46:00;33.28;;;11.70;;
37517;SDS011;23366;52.498;13.446;2022-12-18T10:48:33;52.20;;;13.23;;
37517;SDS011;23366;52.498;13.446;2022-12-18T10:53:51;39.25;;;13.77;;
37517;SDS011;23366;52.498;13.446;2022-12-18T10:56:33;49.17;;;15.07;;
37517;SDS011;23366;52.498;13.446;2022-12-18T10:59:02;46.97;;;11.95;;
37517;SDS011;23366;52.498;13.446;2022-12-18T11:01:45;30.92;;;13.23;;
37517;SDS011;23366;52.498;13.446;2022-12-18T11:04:30;36.60;;;13.95;;
37517;SDS011;23366;52.498;13.446;2022-12-18T11:07:15;31.42;;;13.73;;
37517;SDS011;23366;52.498;13.446;2022-12-18T11:10:00;32.85;;;9.88;;
37517;SDS011;23366;52.498;13.446;2022-12-18T11:12:29;42.00;;;11.73;;
37517;SDS011;23366;52.498;13.446;2022-12-18T11:14:55;36.25;;;14.38;;
37517;SDS011;23366;52.498;13.446;2022-12-18T11:17:25;25.58;;;11.63;;
37517;SDS011;23366;52.498;13.446;2022-12-18T11:20:01;28.75;;;9.70;;
37517;SDS011;23366;52.498;13.446;2022-12-18T11:22:35;29.58;;;10.77;;
37517;SDS011;23366;52.498;13.446;2022-12-18T11:25:04;27.75;;;10.93;;
37517;SDS011;23366;52.498;13.446;2022-12-18T11:27:39;25.88;;;11.00;;
37517;SDS011;23366;52.498;13.446;2022-12-18T11:30:23;32.40;;;11.57;;
37517;SDS011;23366;52.498;13.446;2022-12-18T11:32:49;25.40;;;10.30;;
37517;SDS011;23366;52.498;13.446;2022-12-18T11:35:38;31.90;;;12.63;;
37517;SDS011;23366;52.498;13.446;2022-12-18T11:46:43;29.45;;;10.43;;
37517;SDS011;23366;52.498;13.446;2022-12-18T11:49:28;40.90;;;12.45;;
37517;SDS011;23366;52.498;13.446;2022-12-18T11:52:16;31.77;;;14.35;;
37517;SDS011;23366;52.498;13.446;2022-12-18T11:54:46;36.08;;;13.40;;
37517;SDS011;23366;52.498;13.446;2022-12-18T12:18:48;29.83;;;8.15;;
37517;SDS011;23366;52.498;13.446;2022-12-18T12:23:55;31.48;;;11.23;;
37517;SDS011;23366;52.498;13.446;2022-12-18T12:26:45;41.80;;;12.50;;
37517;SDS011;23366;52.498;13.446;2022-12-18T12:32:02;21.13;;;8.70;;
37517;SDS011;23366;52.498;13.446;2022-12-18T12:34:41;18.23;;;7.90;;
37517;SDS011;23366;52.498;13.446;2022-12-18T12:40:04;36.83;;;13.55;;
37517;SDS011;23366;52.498;13.446;2022-12-18T12:42:34;33.85;;;13.20;;
37517;SDS011;23366;52.498;13.446;2022-12-18T12:45:29;34.88;;;11.00;;
37517;SDS011;23366;52.498;13.446;2022-12-18T12:47:59;26.98;;;11.52;;
37517;SDS011;23366;52.498;13.446;2022-12-18T12:50:27;33.25;;;9.63;;
37517;SDS011;23366;52.498;13.446;2022-12-18T12:52:58;34.38;;;9.98;;
37517;SDS011;23366;52.498;13.446;2022-12-18T12:55:26;30.52;;;12.43;;
37517;SDS011;23366;52.498;13.446;2022-12-18T12:58:06;29.13;;;10.13;;
37517;SDS011;23366;52.498;13.446;2022-12-18T13:00:40;35.80;;;13.90;;
37517;SDS011;23366;52.498;13.446;2022-12-18T13:03:41;26.13;;;10.77;;
37517;SDS011;23366;52.498;13.446;2022-12-18T13:06:25;20.65;;;10.13;;
37517;SDS011;23366;52.498;13.446;2022-12-18T13:09:00;40.13;;;12.98;;
37517;SDS011;23366;52.498;13.446;2022-12-18T13:11:36;35.75;;;14.23;;
37517;SDS011;23366;52.498;13.446;2022-12-18T13:14:39;31.73;;;12.90;;
37517;SDS011;23366;52.498;13.446;2022-12-18T13:19:49;26.60;;;9.90;;
37517;SDS011;23366;52.498;13.446;2022-12-18T13:22:28;22.88;;;10.85;;
37517;SDS011;23366;52.498;13.446;2022-12-18T13:25:00;28.20;;;11.18;;
37517;SDS011;23366;52.498;13.446;2022-12-18T13:30:41;35.13;;;15.20;;
37517;SDS011;23366;52.498;13.446;2022-12-18T13:35:50;31.98;;;12.25;;
37517;SDS011;23366;52.498;13.446;2022-12-18T13:38:22;43.97;;;12.65;;
37517;SDS011;23366;52.498;13.446;2022-12-18T13:40:58;24.42;;;9.88;;
37517;SDS011;23366;52.498;13.446;2022-12-18T13:43:29;26.52;;;9.95;;
37517;SDS011;23366;52.498;13.446;2022-12-18T13:48:43;29.35;;;10.95;;
37517;SDS011;23366;52.498;13.446;2022-12-18T13:51:24;19.45;;;9.13;;
37517;SDS011;23366;52.498;13.446;2022-12-18T13:53:54;24.13;;;10.48;;
37517;SDS011;23366;52.498;13.446;2022-12-18T13:56:28;29.50;;;9.55;;
37517;SDS011;23366;52.498;13.446;2022-12-18T13:59:05;23.92;;;10.05;;
37517;SDS011;23366;52.498;13.446;2022-12-18T14:07:06;30.05;;;12.00;;
37517;SDS011;23366;52.498;13.446;2022-12-18T14:09:39;33.90;;;11.63;;
37517;SDS011;23366;52.498;13.446;2022-12-18T14:12:14;29.83;;;11.85;;
37517;SDS011;23366;52.498;13.446;2022-12-18T14:15:02;26.75;;;11.57;;
37517;SDS011;23366;52.498;13.446;2022-12-18T14:17:28;29.17;;;12.30;;
37517;SDS011;23366;52.498;13.446;2022-12-18T14:19:55;34.83;;;12.60;;
37517;SDS011;23366;52.498;13.446;2022-12-18T14:22:25;32.30;;;11.82;;
37517;SDS011;23366;52.498;13.446;2022-12-18T14:27:44;29.05;;;11.88;;
37517;SDS011;23366;52.498;13.446;2022-12-18T14:35:34;27.08;;;10.38;;
37517;SDS011;23366;52.498;13.446;2022-12-18T14:38:18;32.95;;;11.55;;
37517;SDS011;23366;52.498;13.446;2022-12-18T14:41:00;31.60;;;12.20;;
37517;SDS011;23366;52.498;13.446;2022-12-18T14:43:29;29.45;;;11.35;;
37517;SDS011;23366;52.498;13.446;2022-12-18T14:45:59;24.45;;;10.18;;
37517;SDS011;23366;52.498;13.446;2022-12-18T14:48:39;27.92;;;11.48;;
37517;SDS011;23366;52.498;13.446;2022-12-18T14:51:14;26.20;;;10.50;;
37517;SDS011;23366;52.498;13.446;2022-12-18T14:53:48;22.67;;;10.15;;
37517;SDS011;23366;52.498;13.446;2022-12-18T14:56:23;29.75;;;11.65;;
37517;SDS011;23366;52.498;13.446;2022-12-18T14:58:58;22.83;;;9.93;;
37517;SDS011;23366;52.498;13.446;2022-12-18T15:01:38;24.50;;;10.23;;
37517;SDS011;23366;52.498;13.446;2022-12-18T15:04:23;27.45;;;11.18;;
37517;SDS011;23366;52.498;13.446;2022-12-18T15:07:05;24.38;;;8.55;;
37517;SDS011;23366;52.498;13.446;2022-12-18T15:09:33;20.55;;;8.88;;
37517;SDS011;23366;52.498;13.446;2022-12-18T15:11:59;21.75;;;10.18;;
37517;SDS011;23366;52.498;13.446;2022-12-18T15:16:59;33.67;;;10.05;;
37517;SDS011;23366;52.498;13.446;2022-12-18T15:19:37;19.65;;;9.00;;
37517;SDS011;23366;52.498;13.446;2022-12-18T15:22:14;22.13;;;7.95;;
37517;SDS011;23366;52.498;13.446;2022-12-18T15:24:48;23.52;;;9.38;;
37517;SDS011;23366;52.498;13.446;2022-12-18T15:30:16;31.13;;;10.77;;
37517;SDS011;23366;52.498;13.446;2022-12-18T15:32:43;24.23;;;9.73;;
37517;SDS011;23366;52.498;13.446;2022-12-18T15:37:39;30.67;;;11.75;;
37517;SDS011;23366;52.498;13.446;2022-12-18T15:40:06;23.23;;;10.93;;
37517;SDS011;23366;52.498;13.446;2022-12-18T15:42:33;31.10;;;9.80;;
37517;SDS011;23366;52.498;13.446;2022-12-18T15:45:17;28.33;;;11.63;;
37517;SDS011;23366;52.498;13.446;2022-12-18T15:47:43;28.85;;;11.65;;
37517;SDS011;23366;52.498;13.446;2022-12-18T15:50:09;24.70;;;10.20;;
37517;SDS011;23366;52.498;13.446;2022-12-18T15:52:41;27.42;;;11.38;;
37517;SDS011;23366;52.498;13.446;2022-12-18T15:55:19;22.17;;;11.07;;
37517;SDS011;23366;52.498;13.446;2022-12-18T15:58:05;19.15;;;10.40;;
37517;SDS011;23366;52.498;13.446;2022-12-18T16:00:33;22.95;;;9.52;;
37517;SDS011;23366;52.498;13.446;2022-12-18T16:03:00;26.25;;;10.07;;
37517;SDS011;23366;52.498;13.446;2022-12-18T16:05:26;22.73;;;10.27;;
37517;SDS011;23366;52.498;13.446;2022-12-18T16:07:53;22.73;;;8.52;;
37517;SDS011;23366;52.498;13.446;2022-12-18T16:10:18;25.05;;;8.88;;
37517;SDS011;23366;52.498;13.446;2022-12-18T16:12:44;21.77;;;10.05;;
37517;SDS011;23366;52.498;13.446;2022-12-18T16:15:11;27.65;;;12.93;;
37517;SDS011;23366;52.498;13.446;2022-12-18T16:17:39;22.58;;;10.85;;
37517;SDS011;23366;52.498;13.446;2022-12-18T16:20:06;29.65;;;10.85;;
37517;SDS011;23366;52.498;13.446;2022-12-18T16:22:40;22.95;;;10.70;;
37517;SDS011;23366;52.498;13.446;2022-12-18T16:25:10;23.17;;;8.93;;
37517;SDS011;23366;52.498;13.446;2022-12-18T16:27:48;25.83;;;9.38;;
37517;SDS011;23366;52.498;13.446;2022-12-18T16:30:18;26.35;;;10.30;;
37517;SDS011;23366;52.498;13.446;2022-12-18T16:32:45;26.10;;;10.57;;